Latest Weather Observations for Pallamana

IDS60901

Issued at 12:41 am CST Monday 10 August 2020 (issued every 10 minutes, with the page automatically refreshed every 10 minutes)

About weather observations | Map of Adelaide area stations | Latest observations for Adelaide area | Other Formats
Station Details ID: 024584 Name: PALLAMANA AERODROME Lat: -35.06 Lon: 139.23 Height: 45.0 m
Data from the previous 72 hours. | See also: Recent months at Pallamana
Date/Time
CST
Temp
°C
App
Temp
°C
Dew
Point
°C
Rel
Hum
%
Delta-T
°C
Wind Press
QNH
hPa
Press
MSL
hPa
Rain since
9am
mm
Dir  Spd
km/h
Gust
km/h
Spd
kts
Gust
kts
10/12:30am 8.0 4.2 6.0 87 0.9 W 15 17 8 9 1021.7 1021.8 0.0
10/12:00am 6.1 4.5 4.7 91 0.6 WNW 2 9 1 5 1021.8 1021.9 0.0
 
Date/Time
CST
Temp
°C
App
Temp
°C
Dew
Point
°C
Rel
Hum
%
Delta-T
°C
Wind Press
QNH
hPa
Press
MSL
hPa
Rain since
9am
mm
Dir  Spd
km/h
Gust
km/h
Spd
kts
Gust
kts
09/11:30pm 8.1 4.4 6.1 87 0.9 WSW 15 17 8 9 1021.7 1021.8 0.0
09/11:00pm 9.1 6.3 7.0 87 1.0 W 11 15 6 8 1021.9 1022.0 0.0
09/10:30pm 9.8 6.4 7.5 85 1.1 WSW 15 17 8 9 1022.1 1022.2 0.0
09/10:00pm 10.2 6.8 7.7 84 1.2 WSW 15 17 8 9 1022.1 1022.2 0.0
09/09:30pm 10.3 6.6 7.8 84 1.2 WSW 17 19 9 10 1022.1 1022.2 0.0
09/09:00pm 10.4 6.7 7.9 84 1.2 WSW 17 19 9 10 1021.8 1021.9 0.0
09/08:30pm 10.2 7.2 7.7 84 1.2 W 13 17 7 9 1021.6 1021.7 0.0
09/08:00pm 10.6 8.1 8.1 84 1.2 WSW 11 13 6 7 1021.3 1021.3 0.0
09/07:30pm 11.1 8.6 8.4 83 1.3 SW 11 13 6 7 1021.4 1021.5 0.0
09/07:00pm 11.0 8.2 8.6 85 1.2 SW 13 17 7 9 1021.3 1021.3 0.0
09/06:30pm 11.0 9.0 8.8 86 1.1 S 9 13 5 7 1021.1 1021.1 0.0
09/06:00pm 11.1 9.5 8.9 86 1.1 S 7 11 4 6 1021.1 1021.1 0.0
09/05:30pm 11.3 8.9 8.7 84 1.3 SSW 11 15 6 8 1020.9 1020.9 0.0
09/05:00pm 11.6 8.8 8.6 82 1.5 S 13 17 7 9 1020.6 1020.6 0.0
09/04:30pm 11.9 8.3 8.2 78 1.8 S 17 20 9 11 1020.3 1020.3 0.0
09/04:00pm 12.0 8.8 8.6 80 1.7 S 15 22 8 12 1020.1 1020.1 0.0
09/03:30pm 12.1 8.2 8.5 78 1.8 S 19 26 10 14 1019.9 1019.9 0.0
09/03:00pm 12.8 8.8 9.0 78 1.9 S 20 26 11 14 1019.6 1019.6 0.0
09/02:30pm 13.1 9.9 8.5 73 2.3 S 15 20 8 11 1019.6 1019.6 0.0
09/02:00pm 13.2 9.8 7.7 69 2.7 S 15 20 8 11 1019.8 1019.8 0.0
09/01:30pm 13.0 9.8 8.6 74 2.2 S 15 20 8 11 1019.9 1019.9 0.0
09/01:00pm 12.6 9.9 9.0 79 1.8 SSE 13 19 7 10 1020.3 1020.3 0.0
09/12:40pm 12.5 9.8 8.9 79 1.8 S 13 19 7 10 1020.5 1020.5 0.0
09/12:30pm 12.5 9.8 9.1 80 1.7 SSE 13 17 7 9 1020.6 1020.6 0.0
09/12:00pm 12.0 8.9 8.8 81 1.6 SSW 15 22 8 12 1020.7 1020.7 0.0
09/11:58am 12.2 9.1 9.0 81 1.6 SSW 15 22 8 12 1020.7 1020.7 0.0
09/11:30am 11.6 7.6 8.1 79 1.7 SSW 19 24 10 13 1021.1 1021.1 0.0
09/11:00am 11.4 8.4 7.9 79 1.7 SW 13 19 7 10 1021.1 1021.1 0.0
09/10:30am 10.5 7.7 6.9 78 1.7 WSW 11 15 6 8 1021.3 1021.3 0.0
09/10:00am 9.9 8.0 7.4 84 1.2 WSW 7 11 4 6 1021.0 1021.0 0.0
09/09:30am 9.2 7.3 7.5 89 0.8 SSW 7 11 4 6 1020.8 1020.8 0.0
09/09:00am 8.7 6.8 7.4 91 0.6 S 7 11 4 6 1020.7 1020.7 1.8
09/08:30am 7.5 5.0 6.6 94 0.4 SSW 9 13 5 7 1020.8 1020.8 1.8
09/08:00am 7.2 5.1 6.5 95 0.3 S 7 11 4 6 1020.6 1020.6 1.8
09/07:30am 6.6 4.5 5.9 95 0.3 S 6 6 3 3 1020.0 1020.0 1.8
09/07:02am 6.4 4.3 5.7 95 0.3 S 6 9 3 5 1019.8 1019.8 1.8
09/07:00am 6.4 4.3 5.7 95 0.3 S 6 7 3 4 1019.7 1019.7 1.8
09/06:30am 6.5 3.9 6.1 97 0.2 S 9 9 5 5 1019.5 1019.5 1.8
09/06:00am 6.7 4.5 6.3 97 0.2 S 7 9 4 5 1019.0 1019.0 1.8
09/05:30am 7.1 4.6 6.4 95 0.3 S 9 11 5 6 1018.8 1018.8 1.8
09/05:00am 7.1 4.6 6.4 95 0.3 S 9 13 5 7 1018.8 1018.8 1.8
09/04:30am 7.0 3.7 6.6 97 0.2 SSE 13 17 7 9 1018.4 1018.4 1.8
09/04:00am 7.0 3.6 6.1 94 0.4 SSE 13 17 7 9 1018.1 1018.1 1.8
09/03:54am 6.9 3.6 6.2 95 0.3 SSE 13 17 7 9 1018.0 1018.0 1.8
09/03:30am 6.8 4.2 6.1 95 0.3 S 9 11 5 6 1017.8 1017.8 1.8
09/03:00am 7.2 4.7 6.5 95 0.3 SSE 9 13 5 7 1017.6 1017.6 1.8
09/02:30am 7.4 4.5 6.7 95 0.3 SE 11 13 6 7 1017.5 1017.5 1.8
09/02:21am 7.4 4.9 6.7 95 0.3 SE 9 13 5 7 1017.5 1017.5 1.8
09/02:00am 7.6 4.4 7.0 96 0.3 SE 13 15 7 8 1017.5 1017.5 1.8
09/01:30am 7.9 5.1 7.0 94 0.4 SE 11 15 6 8 1017.3 1017.3 1.8
09/01:07am 8.0 5.7 7.4 96 0.3 SE 9 13 5 7 1017.2 1017.2 1.8
09/01:00am 8.0 5.7 7.4 96 0.3 SE 9 11 5 6 1017.1 1017.1 1.8
09/12:30am 8.1 5.4 7.5 96 0.3 SE 11 15 6 8 1016.9 1016.9 1.8
09/12:00am 8.2 5.6 7.6 96 0.3 SE 11 15 6 8 1016.7 1016.7 1.8
 
Date/Time
CST
Temp
°C
App
Temp
°C
Dew
Point
°C
Rel
Hum
%
Delta-T
°C
Wind Press
QNH
hPa
Press
MSL
hPa
Rain since
9am
mm
Dir  Spd
km/h
Gust
km/h
Spd
kts
Gust
kts
08/11:54pm 8.2 5.6 7.6 96 0.3 SE 11 15 6 8 1016.6 1016.6 1.8
08/11:41pm 8.2 5.9 7.6 96 0.3 SE 9 13 5 7 1016.5 1016.5 1.8
08/11:30pm 8.2 5.9 7.3 94 0.4 SE 9 13 5 7 1016.4 1016.4 1.8
08/11:00pm 8.3 6.0 7.5 95 0.4 SSE 9 11 5 6 1016.3 1016.3 1.8
08/10:30pm 8.3 6.4 7.5 95 0.4 SE 7 9 4 5 1016.2 1016.2 1.8
08/10:00pm 8.4 6.4 7.3 93 0.5 E 7 11 4 6 1015.8 1015.8 1.8
08/09:35pm 8.5 5.8 7.4 93 0.5 E 11 13 6 7 1015.6 1015.6 1.8
08/09:30pm 8.6 6.3 7.5 93 0.5 E 9 11 5 6 1015.6 1015.6 1.8
08/09:00pm 8.8 6.2 7.7 93 0.5 E 11 17 6 9 1015.4 1015.4 1.8
08/08:30pm 9.1 5.4 7.8 92 0.6 ESE 17 22 9 12 1015.2 1015.2 1.8
08/08:00pm 9.3 5.1 8.1 92 0.6 ESE 20 30 11 16 1014.8 1014.8 1.8
08/07:30pm 9.4 4.8 8.2 92 0.6 ESE 22 30 12 16 1014.3 1014.3 1.8
08/07:20pm 9.5 3.8 8.3 92 0.6 ESE 28 35 15 19 1014.1 1014.1 1.8
08/07:00pm 9.9 4.8 9.1 95 0.4 SE 26 33 14 18 1013.7 1013.7 1.8
08/06:59pm 10.0 4.8 9.0 93 0.5 SE 26 33 14 18 1013.7 1013.7 1.8
08/06:30pm 10.4 7.2 9.8 96 0.3 S 17 22 9 12 1013.3 1013.3 1.8
08/06:05pm 10.5 6.9 9.7 95 0.4 S 19 24 10 13 1013.0 1013.0 1.8
08/06:00pm 10.6 7.0 9.8 95 0.4 S 19 24 10 13 1012.9 1012.9 1.8
08/05:40pm 10.8 7.6 9.8 93 0.5 S 17 26 9 14 1012.7 1012.7 1.2
08/05:38pm 10.8 7.2 9.8 93 0.5 S 19 28 10 15 1012.6 1012.6 1.2
08/05:32pm 10.8 7.2 9.8 93 0.5 S 19 28 10 15 1012.6 1012.6 1.2
08/05:30pm 10.8 7.2 9.8 93 0.5 S 19 28 10 15 1012.6 1012.6 1.2
08/05:00pm 10.7 7.5 9.9 95 0.4 SSW 17 22 9 12 1012.4 1012.4 1.2
08/04:53pm 10.8 7.6 9.8 93 0.5 SSW 17 22 9 12 1012.4 1012.4 1.0
08/04:30pm 10.8 7.6 9.8 93 0.5 SSW 17 22 9 12 1012.2 1012.2 0.8
08/04:08pm 11.0 7.8 9.8 92 0.6 SSW 17 22 9 12 1012.0 1012.0 0.6
08/04:00pm 11.3 7.7 9.9 91 0.7 SSW 19 22 10 12 1012.0 1012.0 0.6
08/03:30pm 11.5 8.3 9.9 90 0.8 SSW 17 20 9 11 1011.8 1011.8 0.4
08/03:00pm 11.3 8.9 10.1 92 0.6 S 13 17 7 9 1011.7 1011.7 0.4
08/02:30pm 11.1 8.2 9.7 91 0.7 S 15 19 8 10 1011.7 1011.7 0.4
08/02:00pm 10.8 8.4 10.0 95 0.4 SSE 13 19 7 10 1011.8 1011.8 0.4
08/01:30pm 10.4 7.9 9.8 96 0.3 SSE 13 19 7 10 1012.0 1012.0 0.4
08/01:00pm 10.3 8.0 9.1 92 0.6 SSE 11 15 6 8 1012.1 1012.1 0.0
08/12:51pm 10.3 8.0 8.9 91 0.7 SSE 11 15 6 8 1012.2 1012.2 0.0
08/12:30pm 10.6 7.9 8.8 89 0.9 SSE 13 19 7 10 1012.3 1012.3 0.0
08/12:00pm 10.6 7.1 8.8 89 0.9 S 17 24 9 13 1012.4 1012.4 0.0
08/11:48am 11.1 8.3 8.5 84 1.3 SSE 13 17 7 9 1012.5 1012.5 0.0
08/11:34am 11.1 8.7 8.5 84 1.3 SSE 11 17 6 9 1012.6 1012.6 0.0
08/11:30am 11.0 8.6 8.6 85 1.2 SSE 11 17 6 9 1012.6 1012.6 0.0
08/11:00am 10.4 7.0 9.0 91 0.7 SSE 17 20 9 11 1012.7 1012.7 0.0
08/10:33am 9.9 6.4 8.9 93 0.5 SE 17 24 9 13 1012.8 1012.8 0.0
08/10:30am 9.7 6.2 8.9 95 0.4 SE 17 24 9 13 1012.8 1012.8 0.0
08/10:07am 9.4 5.3 8.8 96 0.3 SE 20 24 11 13 1012.7 1012.7 0.0
08/10:00am 9.4 5.5 8.8 96 0.3 SE 19 24 10 13 1012.6 1012.6 0.0
08/09:37am 9.2 5.7 8.8 97 0.2 SSE 17 22 9 12 1012.5 1012.5 0.0
08/09:30am 9.2 5.7 8.8 97 0.2 SSE 17 22 9 12 1012.4 1012.4 0.0
08/09:00am 8.9 5.3 8.5 97 0.2 SSE 17 24 9 13 1012.3 1012.3 9.4
08/08:30am 8.7 5.1 8.3 97 0.2 SSE 17 24 9 13 1012.1 1012.1 9.4
08/08:00am 8.4 5.1 8.2 99 0.1 SSE 15 20 8 11 1011.8 1011.8 9.4
08/07:30am 8.3 4.6 7.9 97 0.2 SSE 17 24 9 13 1011.4 1011.4 9.4
08/07:00am 8.1 4.3 7.7 97 0.2 SSE 17 26 9 14 1011.1 1011.2 9.4
08/06:30am 8.1 4.3 7.7 97 0.2 SSE 17 20 9 11 1010.7 1010.8 9.4
08/06:00am 8.0 3.8 7.6 97 0.2 SSE 19 28 10 15 1010.5 1010.6 9.4
08/05:30am 7.9 3.7 7.5 97 0.2 S 19 26 10 14 1010.3 1010.4 9.2
08/05:00am 7.9 4.1 7.5 97 0.2 S 17 24 9 13 1010.0 1010.1 9.2
08/04:30am 7.9 3.7 7.5 97 0.2 S 19 22 10 12 1010.0 1010.1 9.2
08/04:00am 7.9 3.7 7.5 97 0.2 SSE 19 28 10 15 1009.9 1010.0 9.0
08/03:30am 7.9 3.7 7.5 97 0.2 SSE 19 22 10 12 1009.9 1010.0 9.0
08/03:00am 7.9 3.7 7.3 96 0.3 SSE 19 30 10 16 1009.8 1009.9 8.6
08/02:30am 7.9 3.7 7.3 96 0.3 SSE 19 28 10 15 1010.0 1010.1 8.0
08/02:00am 7.9 4.0 7.3 96 0.3 SSE 17 26 9 14 1010.0 1010.1 8.0
08/01:50am 7.9 3.7 7.3 96 0.3 SSE 19 24 10 13 1010.0 1010.1 7.8
08/01:37am 7.9 3.7 7.3 96 0.3 SSE 19 24 10 13 1010.0 1010.1 7.6
08/01:30am 7.9 3.6 7.0 94 0.4 SSE 19 28 10 15 1010.1 1010.2 7.4
08/01:16am 7.9 3.6 7.0 94 0.4 SSE 19 28 10 15 1010.0 1010.1 7.4
08/01:00am 7.8 3.4 7.2 96 0.3 SSE 20 28 11 15 1010.0 1010.1 7.4
08/12:30am 7.7 3.2 7.1 96 0.3 SSE 20 28 11 15 1010.1 1010.2 7.4
08/12:14am 7.7 2.8 6.8 94 0.4 SSE 22 32 12 17 1010.2 1010.3 7.2
08/12:00am 7.6 2.7 7.0 96 0.3 SSE 22 33 12 18 1010.3 1010.4 7.0
 
Date/Time
CST
Temp
°C
App
Temp
°C
Dew
Point
°C
Rel
Hum
%
Delta-T
°C
Wind Press
QNH
hPa
Press
MSL
hPa
Rain since
9am
mm
Dir  Spd
km/h
Gust
km/h
Spd
kts
Gust
kts
07/11:30pm 7.6 2.7 6.7 94 0.4 SSE 22 30 12 16 1010.3 1010.4 6.8
07/11:00pm 7.5 2.6 6.9 96 0.3 SSE 22 33 12 18 1010.6 1010.7 6.6
07/10:30pm 7.4 2.5 6.7 95 0.3 SSE 22 35 12 19 1010.6 1010.7 6.4
07/10:21pm 7.4 2.8 6.5 94 0.4 SSE 20 28 11 15 1010.7 1010.8 6.4
07/10:16pm 7.4 2.8 6.5 94 0.4 SSE 20 28 11 15 1010.8 1010.9 6.4
07/10:00pm 7.3 2.7 6.6 95 0.3 SSE 20 28 11 15 1011.0 1011.1 6.2
07/09:30pm 7.2 2.6 6.3 94 0.4 SSE 20 28 11 15 1011.0 1011.1 6.2
07/09:00pm 7.1 1.7 6.2 94 0.4 S 24 35 13 19 1011.3 1011.3 6.0
07/08:30pm 6.8 1.7 6.1 95 0.3 S 22 30 12 16 1011.4 1011.4 5.8
07/08:00pm 6.8 1.3 5.9 94 0.4 S 24 33 13 18 1011.4 1011.4 5.6
07/07:38pm 6.9 1.4 5.8 93 0.5 S 24 35 13 19 1011.5 1011.5 5.6
07/07:30pm 6.8 2.1 5.9 94 0.4 S 20 35 11 19 1011.5 1011.5 5.4
07/07:00pm 6.8 1.6 5.7 93 0.5 S 22 35 12 19 1011.7 1011.7 5.4
07/06:50pm 6.9 1.3 5.6 91 0.6 S 24 35 13 19 1011.7 1011.7 5.2
07/06:30pm 7.1 1.9 5.5 89 0.7 S 22 37 12 20 1011.6 1011.6 5.2
07/06:00pm 7.0 1.8 5.7 91 0.6 S 22 32 12 17 1011.8 1011.8 4.6
07/05:30pm 6.9 1.3 5.6 91 0.6 S 24 35 13 19 1011.7 1011.7 3.8
07/05:00pm 7.1 1.5 5.5 89 0.7 S 24 32 13 17 1011.7 1011.7 3.2
07/04:30pm 7.2 2.4 5.6 89 0.7 S 20 26 11 14 1011.7 1011.7 2.6
07/04:24pm 7.2 2.4 5.6 89 0.7 SSE 20 30 11 16 1011.6 1011.6 2.6
07/04:00pm 7.2 2.0 5.4 88 0.8 S 22 30 12 16 1011.6 1011.6 2.2
07/03:56pm 7.2 1.6 5.4 88 0.8 S 24 35 13 19 1011.7 1011.7 2.2
07/03:30pm 7.3 1.7 5.3 87 0.9 S 24 33 13 18 1011.6 1011.6 2.0
07/03:00pm 7.5 1.4 4.8 83 1.2 S 26 35 14 19 1011.6 1011.6 1.6
07/02:30pm 7.3 2.6 5.3 87 0.9 S 19 24 10 13 1011.9 1011.9 1.0
07/02:00pm 7.3 2.6 5.0 85 1.0 S 19 26 10 14 1011.9 1011.9 0.8
07/01:30pm 7.4 2.6 4.9 84 1.1 S 19 24 10 13 1012.0 1012.0 0.4
07/01:00pm 7.4 2.5 4.2 80 1.4 SSE 19 28 10 15 1012.7 1012.7 0.2
07/12:30pm 7.7 3.2 4.0 77 1.6 SSE 17 20 9 11 1013.2 1013.2 0.0
07/12:00pm 7.9 2.8 3.2 72 2.0 SE 19 28 10 15 1013.7 1013.7 0.0
07/11:30am 8.0 3.2 2.8 70 2.2 SSE 17 24 9 13 1014.0 1014.0 0.0
07/11:00am 7.7 2.3 2.7 70 2.1 SSE 20 24 11 13 1014.3 1014.3 0.0
07/10:30am 7.5 2.8 3.0 73 1.9 SSE 17 20 9 11 1014.4 1014.4 0.0
07/10:00am 7.4 3.1 3.1 74 1.8 SSE 15 20 8 11 1014.7 1014.7 0.0
07/09:30am 7.1 2.5 3.6 78 1.5 SSE 17 22 9 12 1015.0 1015.0 0.0
07/09:00am 7.1 2.5 3.8 79 1.4 SSE 17 24 9 13 1015.4 1015.4 0.0
07/08:30am 7.0 3.3 4.2 82 1.2 SSE 13 19 7 10 1015.7 1015.7 0.0
07/08:00am 6.8 3.1 4.7 86 0.9 S 13 17 7 9 1015.7 1015.7 0.0
07/07:30am 6.7 2.7 4.9 88 0.8 SSE 15 19 8 10 1015.7 1015.7 0.0
07/07:00am 6.4 2.4 4.8 89 0.7 S 15 19 8 10 1015.8 1015.8 0.0
07/06:30am 6.2 2.5 4.6 89 0.7 S 13 19 7 10 1016.0 1016.0 0.0
07/06:00am 6.1 2.4 4.2 88 0.8 S 13 15 7 8 1016.1 1016.1 0.0
07/05:30am 6.2 2.1 4.1 86 0.9 SSE 15 19 8 10 1016.2 1016.2 0.0
07/05:00am 6.2 2.0 3.8 85 1.0 SSE 15 20 8 11 1016.7 1016.7 0.0
07/04:30am 6.4 2.2 3.6 82 1.2 SSE 15 20 8 11 1016.6 1016.6 0.0
07/04:00am 6.2 2.6 3.1 80 1.3 SSE 11 15 6 8 1016.9 1016.9 0.0
07/03:30am 5.8 2.2 3.2 83 1.1 S 11 13 6 7 1017.2 1017.2 0.0
07/03:00am 5.6 3.7 2.9 83 1.1 S 2 7 1 4 1017.6 1017.6 0.0
07/02:30am 5.8 2.6 2.9 82 1.2 S 9 11 5 6 1017.8 1017.8 0.0
07/02:00am 5.8 2.2 2.9 82 1.2 SSE 11 13 6 7 1018.3 1018.3 0.0
07/01:30am 6.0 1.6 2.9 80 1.3 S 15 20 8 11 1017.9 1017.9 0.0
07/01:00am 6.0 2.7 2.6 79 1.4 SSE 9 11 5 6 1018.5 1018.5 0.0

Latest Capital City Observations: Canberra | Sydney | Melbourne | Brisbane | Adelaide | Perth | Hobart | Darwin

Other formats

Comma delimited format used in spreadsheet applications
http://www.bom.gov.au/fwo/IDS60901/IDS60901.95818.axf

JavaScript Object Notation format (JSON) in row-major order
http://www.bom.gov.au/fwo/IDS60901/IDS60901.95818.json

Data quality

Most of these data are generated automatically and are frequently updated. Quality checks on data are not normally performed. It is possible for incorrect values to appear. Refer to information at About Latest Weather Observations and please check the disclaimer before using these data.